createdAt,value
2018-06-16T00:03:23.256Z,6.16
2018-06-16T00:07:24.041Z,6.39
2018-06-16T00:13:24.703Z,6.06
2018-06-16T00:19:25.516Z,6.64
2018-06-16T00:23:26.250Z,5.37
2018-06-16T00:29:27.030Z,4.32
2018-06-16T00:33:27.979Z,4.08
2018-06-16T00:35:28.558Z,4.18
2018-06-16T00:39:29.330Z,4.31
2018-06-16T00:45:30.061Z,4.71
2018-06-16T00:49:30.748Z,4.4
2018-06-16T00:55:31.530Z,4.14
2018-06-16T01:01:32.378Z,4.47
2018-06-16T01:05:33.173Z,4.07
2018-06-16T01:11:33.903Z,4.93
2018-06-16T01:15:34.694Z,4.41
2018-06-16T01:17:35.402Z,4.1
2018-06-16T01:21:36.099Z,3.96
2018-06-16T01:27:36.823Z,4.12
2018-06-16T01:31:37.555Z,4.02
2018-06-16T01:37:38.273Z,4.38
2018-06-16T01:43:39.049Z,3.63
2018-06-16T01:47:39.902Z,3.26
2018-06-16T01:53:40.618Z,4.24
2018-06-16T01:57:41.324Z,3.69
2018-06-16T02:03:42.028Z,3.78
2018-06-16T02:09:42.848Z,4.42
2018-06-16T02:13:43.707Z,3.89
2018-06-16T02:19:44.539Z,4.19
2018-06-16T02:23:45.257Z,3.93
2018-06-16T02:25:45.931Z,4.42
2018-06-16T02:29:46.812Z,4.68
2018-06-16T02:35:47.562Z,5.97
2018-06-16T02:39:48.387Z,5.64
2018-06-16T02:45:49.113Z,4.95
2018-06-16T02:51:49.835Z,4.75
2018-06-16T02:55:50.571Z,4.32
2018-06-16T03:01:51.366Z,4.16
2018-06-16T03:05:52.176Z,4.29
2018-06-16T03:07:53.080Z,4.26
2018-06-16T03:11:53.642Z,4.02
2018-06-16T03:17:54.358Z,4.57
2018-06-16T03:21:55.090Z,4.16
2018-06-16T03:27:55.820Z,4.62
2018-06-16T03:31:56.519Z,4.38
2018-06-16T03:33:57.236Z,4.76
2018-06-16T03:37:58.089Z,4.39
2018-06-16T03:43:58.907Z,4.71
2018-06-16T03:47:59.913Z,4.28
2018-06-16T03:54:00.611Z,4.13
2018-06-16T04:00:01.604Z,4.47
2018-06-16T04:04:02.539Z,4.23
2018-06-16T04:10:03.198Z,4.64
2018-06-16T04:14:04.142Z,4.41
2018-06-16T04:16:04.891Z,5.44
2018-06-16T04:20:05.633Z,5.57
2018-06-16T04:30:12.599Z,5.03
2018-06-16T04:30:12.712Z,5.31
2018-06-16T04:36:13.692Z,5.19
2018-06-16T04:42:14.505Z,5.96
2018-06-16T04:46:15.234Z,5.91
2018-06-16T04:52:15.985Z,6.49
2018-06-16T04:56:16.818Z,6.22
2018-06-16T05:02:17.550Z,7.17
2018-06-16T05:08:18.376Z,5.94
2018-06-16T05:12:19.188Z,5.47
2018-06-16T05:18:19.935Z,5.97
2018-06-16T05:22:20.793Z,5.95
2018-06-16T05:24:21.476Z,6.26
2018-06-16T05:28:22.286Z,5.61
2018-06-16T05:34:22.959Z,7.45
2018-06-16T05:38:23.688Z,8.13
2018-06-16T05:44:24.744Z,9.41
2018-06-16T05:50:25.462Z,9.6
2018-06-16T05:54:26.320Z,9.49
2018-06-16T06:00:27.499Z,9.76
2018-06-16T06:04:28.236Z,9.68
2018-06-16T06:06:28.965Z,10.72
2018-06-16T06:10:29.797Z,10
2018-06-16T06:16:30.524Z,11.89
2018-06-16T06:20:31.341Z,12.31
2018-06-16T06:26:36.746Z,10.46
2018-06-16T06:30:37.601Z,9.66
2018-06-16T06:32:38.486Z,7.89
2018-06-16T06:36:39.252Z,8.76
2018-06-16T06:42:39.979Z,8.76
2018-06-16T06:46:40.841Z,7.56
2018-06-16T06:52:41.622Z,5.58
2018-06-16T06:58:42.493Z,4.92
2018-06-16T07:02:43.187Z,4.95
2018-06-16T07:08:44.183Z,4.9
2018-06-16T07:12:45.119Z,5.04
2018-06-16T07:18:45.892Z,4.24
2018-06-16T07:24:46.537Z,4.67
2018-06-16T07:28:47.374Z,4.4
2018-06-16T07:34:48.168Z,4.58
2018-06-16T07:38:49.181Z,4.4
2018-06-16T07:40:49.821Z,5.34
2018-06-16T07:44:50.732Z,4.42
2018-06-16T07:50:51.760Z,4.8
2018-06-16T07:54:52.583Z,4.31
2018-06-16T08:00:53.474Z,4.33
2018-06-16T08:06:54.271Z,4.73
2018-06-16T08:10:55.048Z,4.45
2018-06-16T08:16:55.806Z,4.66
2018-06-16T08:20:56.519Z,4.41
2018-06-16T08:22:57.158Z,4.63
2018-06-16T08:26:58.251Z,4.12
2018-06-16T08:32:59.060Z,4.34
2018-06-16T08:36:59.721Z,4.63
2018-06-16T08:43:00.517Z,4.71
2018-06-16T08:47:01.328Z,4.47
2018-06-16T08:49:02.071Z,4.66
2018-06-16T08:53:02.897Z,4.52
2018-06-16T08:59:03.575Z,4.51
2018-06-16T09:03:04.290Z,4.16
2018-06-16T09:09:05.136Z,4.3
2018-06-16T09:15:05.888Z,4.75
2018-06-16T09:19:06.584Z,4.7
2018-06-16T09:25:07.330Z,4.88
2018-06-16T09:29:08.066Z,4.52
2018-06-16T09:31:08.684Z,4.42
2018-06-16T09:35:11.400Z,4.49
2018-06-16T09:41:12.349Z,4.59
2018-06-16T09:45:13.699Z,4.07
2018-06-16T09:51:14.502Z,6.68
2018-06-16T09:57:15.206Z,4.95
2018-06-16T10:01:15.993Z,4.3
2018-06-16T10:07:16.811Z,5.06
2018-06-16T10:11:17.594Z,4.78
2018-06-16T10:17:18.355Z,4.34
2018-06-16T10:23:19.109Z,4.24
2018-06-16T10:27:20.005Z,4.38
2018-06-16T10:33:20.753Z,4.25
2018-06-16T10:37:21.425Z,4.05
2018-06-16T10:39:22.296Z,4.24
2018-06-16T10:43:23.064Z,4.41
2018-06-16T10:49:23.758Z,4.64
2018-06-16T10:53:24.550Z,4.7
2018-06-16T10:59:25.293Z,4.4
2018-06-16T11:05:26.129Z,4.4
2018-06-16T11:09:26.866Z,4.4
2018-06-16T11:15:28.512Z,4.74
2018-06-16T11:19:29.204Z,4.35
2018-06-16T11:21:29.874Z,4.52
2018-06-16T11:25:30.664Z,4.5
2018-06-16T11:31:31.447Z,4.34
2018-06-16T11:35:32.266Z,4.3
2018-06-16T11:41:33.084Z,4.96
2018-06-16T11:47:34.778Z,4.62
2018-06-16T11:51:35.533Z,4.64
2018-06-16T11:57:36.282Z,4.99
2018-06-16T12:01:36.979Z,4.72
2018-06-16T12:07:37.807Z,4.81
2018-06-16T12:13:38.542Z,5.91
2018-06-16T12:17:39.349Z,5.25
2018-06-16T12:23:40.679Z,4.68
2018-06-16T12:27:41.455Z,5.15
2018-06-16T12:29:42.208Z,5.44
2018-06-16T12:33:43.571Z,4.8
2018-06-16T12:39:44.460Z,4.49
2018-06-16T12:43:45.380Z,4.2
2018-06-16T12:49:46.107Z,4.52
2018-06-16T12:55:46.968Z,4.49
2018-06-16T12:59:47.661Z,4.09
2018-06-16T13:05:48.285Z,4.52
2018-06-16T13:09:49.228Z,4.42
2018-06-16T13:11:49.983Z,4.42
2018-06-16T13:15:50.757Z,4.41
2018-06-16T13:21:51.606Z,4.18
2018-06-16T13:25:53.803Z,4.06
2018-06-16T13:31:54.543Z,4.51
2018-06-16T13:35:55.346Z,4.06
2018-06-16T13:37:55.999Z,4.21
2018-06-16T13:41:56.765Z,3.99
2018-06-16T13:47:57.508Z,4.02
2018-06-16T13:51:58.361Z,3.6
2018-06-16T13:57:59.079Z,4.25
2018-06-16T14:03:59.930Z,4.09
2018-06-16T14:08:00.625Z,3.96
2018-06-16T14:14:01.428Z,4.2
2018-06-16T14:18:02.231Z,4.13
2018-06-16T14:20:02.923Z,4.19
2018-06-16T14:24:03.793Z,3.94
2018-06-16T14:30:04.635Z,4.45
2018-06-16T14:34:05.366Z,3.57
2018-06-16T14:40:06.165Z,4.3
2018-06-16T14:50:16.070Z,4.02
2018-06-16T14:50:16.187Z,3.65
2018-06-16T14:56:17.028Z,4.61
2018-06-16T15:00:18.471Z,4.1
2018-06-16T15:06:19.338Z,3.91
2018-06-16T15:12:19.958Z,4.1
2018-06-16T15:16:20.723Z,4.25
2018-06-16T15:22:21.434Z,4.54
2018-06-16T15:26:22.317Z,4.4
2018-06-16T15:28:22.916Z,4.23
2018-06-16T15:28:22.926Z,4.23
2018-06-16T15:32:23.785Z,4.04
2018-06-16T15:38:24.527Z,4.16
2018-06-16T15:42:25.431Z,4.52
2018-06-16T15:48:26.291Z,4.6
2018-06-16T15:54:27.012Z,4.42
2018-06-16T15:58:27.798Z,4.57
2018-06-16T16:04:28.668Z,4.89
2018-06-16T16:08:29.402Z,4.34
2018-06-16T16:10:30.058Z,6
2018-06-16T16:14:30.852Z,8.93
2018-06-16T16:20:31.579Z,4.76
2018-06-16T16:24:32.353Z,5.17
2018-06-16T16:30:33.278Z,5.04
2018-06-16T16:36:34.257Z,4.96
2018-06-16T16:40:34.910Z,4.55
2018-06-16T16:46:35.789Z,5.35
2018-06-16T16:50:36.542Z,5.34
2018-06-16T16:56:37.210Z,5.14
2018-06-16T17:02:38.030Z,5.54
2018-06-16T17:06:38.829Z,4.59
2018-06-16T17:12:39.695Z,5.24
2018-06-16T17:16:40.509Z,4.99
2018-06-16T17:18:41.266Z,4.98
2018-06-16T17:22:42.181Z,4.87
2018-06-16T17:28:42.989Z,5.44
2018-06-16T17:32:43.788Z,4.99
2018-06-16T17:38:44.531Z,4.98
2018-06-16T17:44:45.470Z,5.48
2018-06-16T17:48:46.391Z,5.95
2018-06-16T17:54:47.121Z,5.25
2018-06-16T17:58:47.798Z,5.35
2018-06-16T18:00:51.901Z,4.98
2018-06-16T18:04:52.783Z,5.28
2018-06-16T18:10:53.500Z,5.15
2018-06-16T18:14:54.352Z,5.18
2018-06-16T18:20:55.105Z,5.06
2018-06-16T18:26:56.075Z,5.74
2018-06-16T18:30:57.103Z,5.62
2018-06-16T18:36:57.868Z,6
2018-06-16T18:40:58.674Z,5.42
2018-06-16T18:46:59.444Z,5.61
2018-06-16T18:53:00.396Z,5.85
2018-06-16T18:57:01.328Z,5.16
2018-06-16T19:03:02.083Z,5.5
2018-06-16T19:07:02.889Z,5.64
2018-06-16T19:09:03.669Z,5.72
2018-06-16T19:13:04.424Z,5.63
2018-06-16T19:19:05.284Z,6.18
2018-06-16T19:23:06.057Z,5.95
2018-06-16T19:29:06.937Z,5.66
2018-06-16T19:35:07.680Z,6.03
2018-06-16T19:39:08.666Z,5.59
2018-06-16T19:45:09.936Z,5.58
2018-06-16T19:49:10.742Z,4.89
2018-06-16T19:51:11.446Z,6.62
2018-06-16T19:55:12.288Z,6.51
2018-06-16T20:01:13.048Z,7.46
2018-06-16T20:05:13.786Z,6.89
2018-06-16T20:11:14.478Z,7.41
2018-06-16T20:15:15.865Z,7.11
2018-06-16T20:17:16.660Z,6.49
2018-06-16T20:21:17.445Z,6.37
2018-06-16T20:27:18.395Z,6.92
2018-06-16T20:31:24.657Z,6.45
2018-06-16T20:37:27.717Z,7.85
2018-06-16T20:43:29.750Z,8.9
2018-06-16T20:47:30.800Z,8.89
2018-06-16T20:53:31.606Z,10.66
2018-06-16T20:57:32.686Z,11.13
2018-06-16T21:03:33.698Z,10.1
2018-06-16T21:09:34.609Z,10.74
2018-06-16T21:13:35.325Z,9.64
2018-06-16T21:19:36.152Z,8.32
2018-06-16T21:23:37.189Z,8.33
2018-06-16T21:25:37.816Z,8.12
2018-06-16T21:29:38.704Z,8.03
2018-06-16T21:35:39.412Z,8.43
2018-06-16T21:39:40.284Z,8.29
2018-06-16T21:45:41.085Z,7.66
2018-06-16T21:51:41.951Z,7.17
2018-06-16T21:55:42.682Z,6.27
2018-06-16T22:01:43.529Z,7.03
2018-06-16T22:05:44.240Z,6.99
2018-06-16T22:07:44.978Z,8.96
2018-06-16T22:11:45.718Z,8.04
2018-06-16T22:17:46.459Z,13.63
2018-06-16T22:21:47.341Z,13.31
2018-06-16T22:27:48.242Z,13.65
2018-06-16T22:33:49.032Z,13.15
2018-06-16T22:37:49.812Z,12.4
2018-06-16T22:43:50.616Z,11.71
2018-06-16T22:47:51.433Z,12.03
2018-06-16T22:53:52.323Z,12.69
2018-06-16T22:59:53.065Z,13.86
2018-06-16T23:03:53.848Z,12.98
2018-06-16T23:09:55.167Z,12.47
2018-06-16T23:13:56.039Z,11.1
2018-06-16T23:15:57.165Z,11.17
2018-06-16T23:20:00.741Z,11.35
2018-06-16T23:26:01.670Z,10.45
2018-06-16T23:30:02.495Z,10.59
2018-06-16T23:36:03.218Z,10.78
2018-06-16T23:42:04.051Z,10.55
2018-06-16T23:46:04.884Z,9.3
2018-06-16T23:52:05.766Z,8.07
2018-06-16T23:56:06.589Z,7.69
